sensor_id;sensor_type;location;lat;lon;timestamp;P1;durP1;ratioP1;P2;durP2;ratioP2
6135;SDS011;24008;42.664;23.372;2023-03-11T00:01:06;16.10;;;9.67;;
6135;SDS011;24008;42.664;23.372;2023-03-11T00:03:37;15.60;;;9.73;;
6135;SDS011;24008;42.664;23.372;2023-03-11T00:06:04;18.93;;;10.67;;
6135;SDS011;24008;42.664;23.372;2023-03-11T00:08:39;17.23;;;10.00;;
6135;SDS011;24008;42.664;23.372;2023-03-11T00:11:06;15.80;;;9.87;;
6135;SDS011;24008;42.664;23.372;2023-03-11T00:13:33;12.43;;;7.77;;
6135;SDS011;24008;42.664;23.372;2023-03-11T00:16:01;8.53;;;4.57;;
6135;SDS011;24008;42.664;23.372;2023-03-11T00:18:29;5.13;;;3.77;;
6135;SDS011;24008;42.664;23.372;2023-03-11T00:20:56;4.53;;;3.00;;
6135;SDS011;24008;42.664;23.372;2023-03-11T00:23:25;2.40;;;1.70;;
6135;SDS011;24008;42.664;23.372;2023-03-11T00:25:52;1.60;;;1.50;;
6135;SDS011;24008;42.664;23.372;2023-03-11T00:28:19;1.70;;;1.23;;
6135;SDS011;24008;42.664;23.372;2023-03-11T00:30:46;1.53;;;1.13;;
6135;SDS011;24008;42.664;23.372;2023-03-11T00:33:13;1.03;;;0.90;;
6135;SDS011;24008;42.664;23.372;2023-03-11T00:35:43;1.83;;;0.90;;
6135;SDS011;24008;42.664;23.372;2023-03-11T00:38:11;2.53;;;0.90;;
6135;SDS011;24008;42.664;23.372;2023-03-11T00:40:40;2.70;;;1.57;;
6135;SDS011;24008;42.664;23.372;2023-03-11T00:43:08;1.53;;;1.23;;
6135;SDS011;24008;42.664;23.372;2023-03-11T00:45:35;2.17;;;1.00;;
6135;SDS011;24008;42.664;23.372;2023-03-11T00:48:02;2.83;;;0.93;;
6135;SDS011;24008;42.664;23.372;2023-03-11T00:50:30;1.10;;;0.80;;
6135;SDS011;24008;42.664;23.372;2023-03-11T00:53:01;1.80;;;0.80;;
6135;SDS011;24008;42.664;23.372;2023-03-11T00:55:30;1.03;;;0.80;;
6135;SDS011;24008;42.664;23.372;2023-03-11T00:57:59;1.60;;;1.00;;
6135;SDS011;24008;42.664;23.372;2023-03-11T01:00:27;2.23;;;0.80;;
6135;SDS011;24008;42.664;23.372;2023-03-11T01:02:55;1.20;;;0.80;;
6135;SDS011;24008;42.664;23.372;2023-03-11T01:05:23;1.20;;;0.87;;
6135;SDS011;24008;42.664;23.372;2023-03-11T01:07:51;1.13;;;0.80;;
6135;SDS011;24008;42.664;23.372;2023-03-11T01:10:20;1.87;;;0.70;;
6135;SDS011;24008;42.664;23.372;2023-03-11T01:12:46;1.00;;;0.90;;
6135;SDS011;24008;42.664;23.372;2023-03-11T01:15:15;1.50;;;0.80;;
6135;SDS011;24008;42.664;23.372;2023-03-11T01:17:44;1.43;;;0.90;;
6135;SDS011;24008;42.664;23.372;2023-03-11T01:20:12;1.27;;;0.80;;
6135;SDS011;24008;42.664;23.372;2023-03-11T01:22:39;0.90;;;0.70;;
6135;SDS011;24008;42.664;23.372;2023-03-11T01:25:06;1.10;;;0.57;;
6135;SDS011;24008;42.664;23.372;2023-03-11T01:27:36;1.77;;;0.70;;
6135;SDS011;24008;42.664;23.372;2023-03-11T01:30:02;0.90;;;0.50;;
6135;SDS011;24008;42.664;23.372;2023-03-11T01:32:30;2.13;;;0.70;;
6135;SDS011;24008;42.664;23.372;2023-03-11T01:34:56;0.97;;;0.60;;
6135;SDS011;24008;42.664;23.372;2023-03-11T01:37:23;0.80;;;0.50;;
6135;SDS011;24008;42.664;23.372;2023-03-11T01:39:50;0.60;;;0.60;;
6135;SDS011;24008;42.664;23.372;2023-03-11T01:42:17;1.07;;;0.60;;
6135;SDS011;24008;42.664;23.372;2023-03-11T01:44:45;1.27;;;0.50;;
6135;SDS011;24008;42.664;23.372;2023-03-11T01:47:32;1.87;;;0.77;;
6135;SDS011;24008;42.664;23.372;2023-03-11T01:50:02;1.13;;;0.63;;
6135;SDS011;24008;42.664;23.372;2023-03-11T01:52:33;1.43;;;0.83;;
6135;SDS011;24008;42.664;23.372;2023-03-11T01:55:00;1.37;;;1.00;;
6135;SDS011;24008;42.664;23.372;2023-03-11T01:57:27;1.30;;;0.90;;
6135;SDS011;24008;42.664;23.372;2023-03-11T01:59:56;1.50;;;1.10;;
6135;SDS011;24008;42.664;23.372;2023-03-11T02:02:31;1.23;;;1.03;;
6135;SDS011;24008;42.664;23.372;2023-03-11T02:05:01;2.00;;;1.30;;
6135;SDS011;24008;42.664;23.372;2023-03-11T02:07:29;2.67;;;1.83;;
6135;SDS011;24008;42.664;23.372;2023-03-11T02:09:55;2.43;;;1.90;;
6135;SDS011;24008;42.664;23.372;2023-03-11T02:12:22;4.17;;;2.43;;
6135;SDS011;24008;42.664;23.372;2023-03-11T02:14:50;3.60;;;2.63;;
6135;SDS011;24008;42.664;23.372;2023-03-11T02:17:20;12.03;;;7.10;;
6135;SDS011;24008;42.664;23.372;2023-03-11T02:19:58;4.87;;;3.00;;
6135;SDS011;24008;42.664;23.372;2023-03-11T02:22:34;5.80;;;3.27;;
6135;SDS011;24008;42.664;23.372;2023-03-11T02:25:03;7.70;;;4.67;;
6135;SDS011;24008;42.664;23.372;2023-03-11T02:27:36;4.73;;;3.47;;
6135;SDS011;24008;42.664;23.372;2023-03-11T02:30:07;6.23;;;3.60;;
6135;SDS011;24008;42.664;23.372;2023-03-11T02:32:36;4.50;;;2.90;;
6135;SDS011;24008;42.664;23.372;2023-03-11T02:35:04;6.27;;;3.10;;
6135;SDS011;24008;42.664;23.372;2023-03-11T02:37:32;6.03;;;3.33;;
6135;SDS011;24008;42.664;23.372;2023-03-11T02:40:24;4.80;;;3.30;;
6135;SDS011;24008;42.664;23.372;2023-03-11T02:43:02;6.13;;;4.23;;
6135;SDS011;24008;42.664;23.372;2023-03-11T02:45:32;5.80;;;3.40;;
6135;SDS011;24008;42.664;23.372;2023-03-11T02:48:01;5.27;;;3.73;;
6135;SDS011;24008;42.664;23.372;2023-03-11T02:50:28;5.17;;;3.80;;
6135;SDS011;24008;42.664;23.372;2023-03-11T02:52:58;4.23;;;3.13;;
6135;SDS011;24008;42.664;23.372;2023-03-11T02:55:25;4.97;;;3.53;;
6135;SDS011;24008;42.664;23.372;2023-03-11T02:57:52;5.60;;;3.57;;
6135;SDS011;24008;42.664;23.372;2023-03-11T03:00:20;6.83;;;4.10;;
6135;SDS011;24008;42.664;23.372;2023-03-11T03:02:47;6.10;;;3.30;;
6135;SDS011;24008;42.664;23.372;2023-03-11T03:05:17;6.87;;;4.50;;
6135;SDS011;24008;42.664;23.372;2023-03-11T03:07:45;5.90;;;3.70;;
6135;SDS011;24008;42.664;23.372;2023-03-11T03:10:12;6.50;;;4.00;;
6135;SDS011;24008;42.664;23.372;2023-03-11T03:12:40;6.63;;;4.07;;
6135;SDS011;24008;42.664;23.372;2023-03-11T03:15:07;5.80;;;4.17;;
6135;SDS011;24008;42.664;23.372;2023-03-11T03:17:36;5.33;;;4.50;;
6135;SDS011;24008;42.664;23.372;2023-03-11T03:20:03;7.80;;;5.13;;
6135;SDS011;24008;42.664;23.372;2023-03-11T03:22:35;7.37;;;4.27;;
6135;SDS011;24008;42.664;23.372;2023-03-11T03:25:02;5.80;;;4.20;;
6135;SDS011;24008;42.664;23.372;2023-03-11T03:27:30;6.33;;;3.63;;
6135;SDS011;24008;42.664;23.372;2023-03-11T03:29:57;4.27;;;3.37;;
6135;SDS011;24008;42.664;23.372;2023-03-11T03:32:24;4.07;;;3.27;;
6135;SDS011;24008;42.664;23.372;2023-03-11T03:34:52;4.10;;;3.00;;
6135;SDS011;24008;42.664;23.372;2023-03-11T03:37:23;4.63;;;3.03;;
6135;SDS011;24008;42.664;23.372;2023-03-11T03:39:50;4.93;;;3.60;;
6135;SDS011;24008;42.664;23.372;2023-03-11T03:42:17;7.17;;;3.67;;
6135;SDS011;24008;42.664;23.372;2023-03-11T03:44:43;4.73;;;2.87;;
6135;SDS011;24008;42.664;23.372;2023-03-11T03:47:10;4.97;;;3.40;;
6135;SDS011;24008;42.664;23.372;2023-03-11T03:49:37;7.53;;;3.90;;
6135;SDS011;24008;42.664;23.372;2023-03-11T03:52:05;6.97;;;3.90;;
6135;SDS011;24008;42.664;23.372;2023-03-11T03:54:32;7.40;;;4.37;;
6135;SDS011;24008;42.664;23.372;2023-03-11T03:56:59;8.00;;;3.90;;
6135;SDS011;24008;42.664;23.372;2023-03-11T03:59:26;5.93;;;3.77;;
6135;SDS011;24008;42.664;23.372;2023-03-11T04:01:53;7.53;;;4.73;;
6135;SDS011;24008;42.664;23.372;2023-03-11T04:04:20;7.03;;;5.00;;
6135;SDS011;24008;42.664;23.372;2023-03-11T04:06:47;9.13;;;5.63;;
6135;SDS011;24008;42.664;23.372;2023-03-11T04:09:15;8.40;;;4.67;;
6135;SDS011;24008;42.664;23.372;2023-03-11T04:11:42;8.33;;;4.07;;
6135;SDS011;24008;42.664;23.372;2023-03-11T04:14:09;7.20;;;4.93;;
6135;SDS011;24008;42.664;23.372;2023-03-11T04:16:36;7.77;;;5.17;;
6135;SDS011;24008;42.664;23.372;2023-03-11T04:19:03;5.60;;;4.03;;
6135;SDS011;24008;42.664;23.372;2023-03-11T04:21:29;8.50;;;4.03;;
6135;SDS011;24008;42.664;23.372;2023-03-11T04:23:57;5.00;;;3.37;;
6135;SDS011;24008;42.664;23.372;2023-03-11T04:26:26;6.60;;;3.40;;
6135;SDS011;24008;42.664;23.372;2023-03-11T04:28:53;5.37;;;4.13;;
6135;SDS011;24008;42.664;23.372;2023-03-11T04:31:19;6.53;;;4.30;;
6135;SDS011;24008;42.664;23.372;2023-03-11T04:33:46;5.57;;;4.00;;
6135;SDS011;24008;42.664;23.372;2023-03-11T04:36:13;5.70;;;3.67;;
6135;SDS011;24008;42.664;23.372;2023-03-11T04:38:40;4.43;;;3.13;;
6135;SDS011;24008;42.664;23.372;2023-03-11T04:41:07;5.07;;;3.33;;
6135;SDS011;24008;42.664;23.372;2023-03-11T04:43:35;5.13;;;2.87;;
6135;SDS011;24008;42.664;23.372;2023-03-11T04:46:02;6.97;;;4.27;;
6135;SDS011;24008;42.664;23.372;2023-03-11T04:48:29;5.33;;;3.20;;
6135;SDS011;24008;42.664;23.372;2023-03-11T04:50:56;5.37;;;4.27;;
6135;SDS011;24008;42.664;23.372;2023-03-11T04:53:22;5.37;;;3.43;;
6135;SDS011;24008;42.664;23.372;2023-03-11T04:55:49;7.90;;;4.20;;
6135;SDS011;24008;42.664;23.372;2023-03-11T04:58:18;6.27;;;3.77;;
6135;SDS011;24008;42.664;23.372;2023-03-11T05:00:46;5.50;;;4.00;;
6135;SDS011;24008;42.664;23.372;2023-03-11T05:03:13;4.27;;;3.00;;
6135;SDS011;24008;42.664;23.372;2023-03-11T05:05:40;4.63;;;3.10;;
6135;SDS011;24008;42.664;23.372;2023-03-11T05:08:06;4.10;;;2.30;;
6135;SDS011;24008;42.664;23.372;2023-03-11T05:10:33;2.90;;;2.07;;
6135;SDS011;24008;42.664;23.372;2023-03-11T05:13:01;2.33;;;1.80;;
6135;SDS011;24008;42.664;23.372;2023-03-11T05:15:28;3.03;;;1.50;;
6135;SDS011;24008;42.664;23.372;2023-03-11T05:17:59;1.83;;;1.43;;
6135;SDS011;24008;42.664;23.372;2023-03-11T05:20:26;1.97;;;1.20;;
6135;SDS011;24008;42.664;23.372;2023-03-11T05:22:53;1.30;;;0.90;;
6135;SDS011;24008;42.664;23.372;2023-03-11T05:25:20;1.23;;;0.80;;
6135;SDS011;24008;42.664;23.372;2023-03-11T05:27:46;1.10;;;1.00;;
6135;SDS011;24008;42.664;23.372;2023-03-11T05:30:13;1.00;;;0.70;;
6135;SDS011;24008;42.664;23.372;2023-03-11T05:32:40;0.70;;;0.60;;
6135;SDS011;24008;42.664;23.372;2023-03-11T05:35:09;0.70;;;0.50;;
6135;SDS011;24008;42.664;23.372;2023-03-11T05:37:36;0.50;;;0.50;;
6135;SDS011;24008;42.664;23.372;2023-03-11T05:40:03;0.90;;;0.60;;
6135;SDS011;24008;42.664;23.372;2023-03-11T05:42:32;0.80;;;0.60;;
6135;SDS011;24008;42.664;23.372;2023-03-11T05:44:59;0.50;;;0.50;;
6135;SDS011;24008;42.664;23.372;2023-03-11T05:47:25;0.90;;;0.60;;
6135;SDS011;24008;42.664;23.372;2023-03-11T05:49:52;0.70;;;0.60;;
6135;SDS011;24008;42.664;23.372;2023-03-11T05:52:21;1.10;;;0.60;;
6135;SDS011;24008;42.664;23.372;2023-03-11T05:54:48;0.70;;;0.53;;
6135;SDS011;24008;42.664;23.372;2023-03-11T05:57:15;0.50;;;0.50;;
6135;SDS011;24008;42.664;23.372;2023-03-11T05:59:42;0.40;;;0.40;;
6135;SDS011;24008;42.664;23.372;2023-03-11T06:02:09;0.70;;;0.67;;
6135;SDS011;24008;42.664;23.372;2023-03-11T06:04:36;1.30;;;0.90;;
6135;SDS011;24008;42.664;23.372;2023-03-11T06:07:03;2.67;;;0.77;;
6135;SDS011;24008;42.664;23.372;2023-03-11T06:09:31;1.10;;;0.70;;
6135;SDS011;24008;42.664;23.372;2023-03-11T06:12:01;1.03;;;0.60;;
6135;SDS011;24008;42.664;23.372;2023-03-11T06:14:28;0.57;;;0.50;;
6135;SDS011;24008;42.664;23.372;2023-03-11T06:16:56;0.50;;;0.50;;
6135;SDS011;24008;42.664;23.372;2023-03-11T06:19:23;0.70;;;0.70;;
6135;SDS011;24008;42.664;23.372;2023-03-11T06:21:50;0.90;;;0.60;;
6135;SDS011;24008;42.664;23.372;2023-03-11T06:24:17;1.10;;;0.60;;
6135;SDS011;24008;42.664;23.372;2023-03-11T06:26:45;4.63;;;3.20;;
6135;SDS011;24008;42.664;23.372;2023-03-11T06:29:15;2.53;;;1.30;;
6135;SDS011;24008;42.664;23.372;2023-03-11T06:31:42;1.80;;;0.90;;
6135;SDS011;24008;42.664;23.372;2023-03-11T06:34:09;0.70;;;0.50;;
6135;SDS011;24008;42.664;23.372;2023-03-11T06:36:36;0.90;;;0.70;;
6135;SDS011;24008;42.664;23.372;2023-03-11T06:39:03;1.37;;;0.80;;
6135;SDS011;24008;42.664;23.372;2023-03-11T06:41:31;2.80;;;1.30;;
6135;SDS011;24008;42.664;23.372;2023-03-11T06:44:00;1.67;;;0.93;;
6135;SDS011;24008;42.664;23.372;2023-03-11T06:46:31;0.80;;;0.70;;
6135;SDS011;24008;42.664;23.372;2023-03-11T06:48:58;1.13;;;0.60;;
6135;SDS011;24008;42.664;23.372;2023-03-11T06:51:25;1.33;;;0.67;;
6135;SDS011;24008;42.664;23.372;2023-03-11T06:53:52;1.20;;;0.80;;
6135;SDS011;24008;42.664;23.372;2023-03-11T06:56:19;1.30;;;0.90;;
6135;SDS011;24008;42.664;23.372;2023-03-11T06:58:47;1.03;;;0.70;;
6135;SDS011;24008;42.664;23.372;2023-03-11T07:01:16;1.10;;;0.63;;
6135;SDS011;24008;42.664;23.372;2023-03-11T07:03:44;1.23;;;0.70;;
6135;SDS011;24008;42.664;23.372;2023-03-11T07:06:12;1.27;;;0.63;;
6135;SDS011;24008;42.664;23.372;2023-03-11T07:08:39;1.00;;;0.60;;
6135;SDS011;24008;42.664;23.372;2023-03-11T07:11:07;0.77;;;0.60;;
6135;SDS011;24008;42.664;23.372;2023-03-11T07:13:37;0.80;;;0.63;;
6135;SDS011;24008;42.664;23.372;2023-03-11T07:16:05;0.87;;;0.60;;
6135;SDS011;24008;42.664;23.372;2023-03-11T07:18:35;0.87;;;0.70;;
6135;SDS011;24008;42.664;23.372;2023-03-11T07:21:03;0.83;;;0.50;;
6135;SDS011;24008;42.664;23.372;2023-03-11T07:23:31;0.70;;;0.60;;
6135;SDS011;24008;42.664;23.372;2023-03-11T07:25:58;0.97;;;0.70;;
6135;SDS011;24008;42.664;23.372;2023-03-11T07:28:26;0.50;;;0.50;;
6135;SDS011;24008;42.664;23.372;2023-03-11T07:30:54;0.57;;;0.40;;
6135;SDS011;24008;42.664;23.372;2023-03-11T07:33:21;0.80;;;0.67;;
6135;SDS011;24008;42.664;23.372;2023-03-11T07:35:50;0.80;;;0.70;;
6135;SDS011;24008;42.664;23.372;2023-03-11T07:38:17;1.33;;;1.10;;
6135;SDS011;24008;42.664;23.372;2023-03-11T07:40:44;0.70;;;0.60;;
6135;SDS011;24008;42.664;23.372;2023-03-11T07:43:12;0.97;;;0.73;;
6135;SDS011;24008;42.664;23.372;2023-03-11T07:45:39;0.87;;;0.77;;
6135;SDS011;24008;42.664;23.372;2023-03-11T07:48:06;0.80;;;0.70;;
6135;SDS011;24008;42.664;23.372;2023-03-11T07:50:33;1.10;;;0.80;;
6135;SDS011;24008;42.664;23.372;2023-03-11T07:53:01;1.00;;;0.70;;
6135;SDS011;24008;42.664;23.372;2023-03-11T07:55:28;0.83;;;0.40;;
6135;SDS011;24008;42.664;23.372;2023-03-11T07:57:55;1.07;;;0.60;;
6135;SDS011;24008;42.664;23.372;2023-03-11T08:00:22;0.77;;;0.60;;
6135;SDS011;24008;42.664;23.372;2023-03-11T08:02:50;1.10;;;0.73;;
6135;SDS011;24008;42.664;23.372;2023-03-11T08:05:23;2.63;;;0.87;;
6135;SDS011;24008;42.664;23.372;2023-03-11T08:07:50;1.33;;;0.80;;
6135;SDS011;24008;42.664;23.372;2023-03-11T08:10:18;1.03;;;0.70;;
6135;SDS011;24008;42.664;23.372;2023-03-11T08:12:45;1.35;;;0.70;;
6135;SDS011;24008;42.664;23.372;2023-03-11T08:15:12;1.73;;;0.93;;
6135;SDS011;24008;42.664;23.372;2023-03-11T08:17:38;0.93;;;0.60;;
6135;SDS011;24008;42.664;23.372;2023-03-11T08:20:06;2.42;;;0.82;;
6135;SDS011;24008;42.664;23.372;2023-03-11T08:22:35;1.20;;;0.90;;
6135;SDS011;24008;42.664;23.372;2023-03-11T08:25:02;0.90;;;0.63;;
6135;SDS011;24008;42.664;23.372;2023-03-11T08:27:30;1.02;;;0.60;;
6135;SDS011;24008;42.664;23.372;2023-03-11T08:29:57;1.38;;;0.70;;
6135;SDS011;24008;42.664;23.372;2023-03-11T08:32:24;1.40;;;0.77;;
6135;SDS011;24008;42.664;23.372;2023-03-11T08:34:55;2.90;;;0.60;;
6135;SDS011;24008;42.664;23.372;2023-03-11T08:37:24;1.42;;;0.50;;
6135;SDS011;24008;42.664;23.372;2023-03-11T08:39:51;0.82;;;0.57;;
6135;SDS011;24008;42.664;23.372;2023-03-11T08:42:18;0.88;;;0.60;;
6135;SDS011;24008;42.664;23.372;2023-03-11T08:44:47;1.70;;;0.70;;
6135;SDS011;24008;42.664;23.372;2023-03-11T08:47:13;1.08;;;0.60;;
6135;SDS011;24008;42.664;23.372;2023-03-11T08:49:40;0.90;;;0.63;;
6135;SDS011;24008;42.664;23.372;2023-03-11T08:52:07;1.50;;;0.70;;
6135;SDS011;24008;42.664;23.372;2023-03-11T08:54:35;1.10;;;0.75;;
6135;SDS011;24008;42.664;23.372;2023-03-11T08:57:02;1.50;;;0.95;;
6135;SDS011;24008;42.664;23.372;2023-03-11T08:59:29;1.15;;;0.70;;
6135;SDS011;24008;42.664;23.372;2023-03-11T09:01:57;0.80;;;0.60;;
6135;SDS011;24008;42.664;23.372;2023-03-11T09:04:24;1.00;;;0.60;;
6135;SDS011;24008;42.664;23.372;2023-03-11T09:06:51;1.60;;;0.90;;
6135;SDS011;24008;42.664;23.372;2023-03-11T09:09:18;1.17;;;0.60;;
6135;SDS011;24008;42.664;23.372;2023-03-11T09:11:45;1.58;;;0.88;;
6135;SDS011;24008;42.664;23.372;2023-03-11T09:14:13;1.42;;;0.63;;
6135;SDS011;24008;42.664;23.372;2023-03-11T09:16:59;0.82;;;0.70;;
6135;SDS011;24008;42.664;23.372;2023-03-11T09:19:27;1.27;;;0.82;;
6135;SDS011;24008;42.664;23.372;2023-03-11T09:21:54;0.63;;;0.52;;
6135;SDS011;24008;42.664;23.372;2023-03-11T09:24:21;0.85;;;0.68;;
6135;SDS011;24008;42.664;23.372;2023-03-11T09:26:48;1.58;;;0.70;;
6135;SDS011;24008;42.664;23.372;2023-03-11T09:29:15;1.52;;;0.70;;
6135;SDS011;24008;42.664;23.372;2023-03-11T09:31:42;1.05;;;0.70;;
6135;SDS011;24008;42.664;23.372;2023-03-11T09:34:10;1.15;;;0.77;;
6135;SDS011;24008;42.664;23.372;2023-03-11T09:36:39;1.27;;;0.90;;
6135;SDS011;24008;42.664;23.372;2023-03-11T09:39:07;2.08;;;0.75;;
6135;SDS011;24008;42.664;23.372;2023-03-11T09:41:35;1.10;;;0.73;;
6135;SDS011;24008;42.664;23.372;2023-03-11T09:44:11;0.98;;;0.70;;
6135;SDS011;24008;42.664;23.372;2023-03-11T09:49:47;1.13;;;0.65;;
6135;SDS011;24008;42.664;23.372;2023-03-11T09:52:23;1.25;;;0.70;;
6135;SDS011;24008;42.664;23.372;2023-03-11T09:54:55;1.65;;;0.93;;
6135;SDS011;24008;42.664;23.372;2023-03-11T09:57:25;4.25;;;1.05;;
6135;SDS011;24008;42.664;23.372;2023-03-11T09:59:57;1.08;;;0.60;;
6135;SDS011;24008;42.664;23.372;2023-03-11T10:02:24;1.88;;;1.10;;
6135;SDS011;24008;42.664;23.372;2023-03-11T10:04:54;2.17;;;0.80;;
6135;SDS011;24008;42.664;23.372;2023-03-11T10:07:25;1.92;;;1.25;;
6135;SDS011;24008;42.664;23.372;2023-03-11T10:09:58;2.30;;;0.82;;
6135;SDS011;24008;42.664;23.372;2023-03-11T10:12:29;1.98;;;0.50;;
6135;SDS011;24008;42.664;23.372;2023-03-11T10:15:07;1.75;;;1.10;;
6135;SDS011;24008;42.664;23.372;2023-03-11T10:17:47;0.88;;;0.60;;
6135;SDS011;24008;42.664;23.372;2023-03-11T10:20:26;0.65;;;0.45;;
6135;SDS011;24008;42.664;23.372;2023-03-11T10:23:01;1.15;;;0.68;;
6135;SDS011;24008;42.664;23.372;2023-03-11T10:25:44;0.95;;;0.68;;
6135;SDS011;24008;42.664;23.372;2023-03-11T10:28:17;3.05;;;1.95;;
6135;SDS011;24008;42.664;23.372;2023-03-11T10:30:47;1.13;;;0.77;;
6135;SDS011;24008;42.664;23.372;2023-03-11T10:33:20;1.42;;;0.77;;
6135;SDS011;24008;42.664;23.372;2023-03-11T10:35:57;1.17;;;0.60;;
6135;SDS011;24008;42.664;23.372;2023-03-11T10:38:29;1.10;;;0.63;;
6135;SDS011;24008;42.664;23.372;2023-03-11T10:41:00;0.73;;;0.60;;
6135;SDS011;24008;42.664;23.372;2023-03-11T10:43:30;2.65;;;1.55;;
6135;SDS011;24008;42.664;23.372;2023-03-11T10:46:02;1.48;;;0.80;;
6135;SDS011;24008;42.664;23.372;2023-03-11T10:48:37;0.70;;;0.65;;
6135;SDS011;24008;42.664;23.372;2023-03-11T10:51:10;1.03;;;0.70;;
6135;SDS011;24008;42.664;23.372;2023-03-11T10:53:45;0.73;;;0.50;;
6135;SDS011;24008;42.664;23.372;2023-03-11T10:56:22;2.30;;;0.67;;
6135;SDS011;24008;42.664;23.372;2023-03-11T10:58:51;1.33;;;0.70;;
6135;SDS011;24008;42.664;23.372;2023-03-11T11:01:19;0.73;;;0.60;;
6135;SDS011;24008;42.664;23.372;2023-03-11T11:03:47;1.10;;;0.80;;
6135;SDS011;24008;42.664;23.372;2023-03-11T11:06:20;2.00;;;0.80;;
6135;SDS011;24008;42.664;23.372;2023-03-11T11:09:02;1.90;;;0.93;;
6135;SDS011;24008;42.664;23.372;2023-03-11T11:11:31;1.63;;;1.30;;
6135;SDS011;24008;42.664;23.372;2023-03-11T11:13:59;4.33;;;2.03;;
6135;SDS011;24008;42.664;23.372;2023-03-11T11:16:27;1.73;;;1.00;;
6135;SDS011;24008;42.664;23.372;2023-03-11T11:18:55;1.00;;;0.90;;
6135;SDS011;24008;42.664;23.372;2023-03-11T11:21:30;1.47;;;1.00;;
6135;SDS011;24008;42.664;23.372;2023-03-11T11:24:02;1.50;;;0.90;;
6135;SDS011;24008;42.664;23.372;2023-03-11T11:26:35;1.53;;;1.23;;
6135;SDS011;24008;42.664;23.372;2023-03-11T11:29:06;3.00;;;1.80;;
6135;SDS011;24008;42.664;23.372;2023-03-11T11:31:39;2.50;;;1.67;;
6135;SDS011;24008;42.664;23.372;2023-03-11T11:34:21;2.37;;;1.20;;
6135;SDS011;24008;42.664;23.372;2023-03-11T11:36:54;3.30;;;1.60;;
6135;SDS011;24008;42.664;23.372;2023-03-11T11:39:24;2.07;;;1.57;;
6135;SDS011;24008;42.664;23.372;2023-03-11T11:41:53;1.77;;;1.10;;
6135;SDS011;24008;42.664;23.372;2023-03-11T11:44:21;1.53;;;0.87;;
6135;SDS011;24008;42.664;23.372;2023-03-11T11:46:58;1.17;;;0.83;;
6135;SDS011;24008;42.664;23.372;2023-03-11T11:49:30;2.47;;;1.00;;
6135;SDS011;24008;42.664;23.372;2023-03-11T11:52:01;1.40;;;0.80;;
6135;SDS011;24008;42.664;23.372;2023-03-11T11:54:35;1.70;;;1.10;;
6135;SDS011;24008;42.664;23.372;2023-03-11T11:57:08;1.23;;;0.80;;
6135;SDS011;24008;42.664;23.372;2023-03-11T11:59:37;1.97;;;1.20;;
6135;SDS011;24008;42.664;23.372;2023-03-11T12:02:06;2.20;;;0.80;;
6135;SDS011;24008;42.664;23.372;2023-03-11T12:04:53;1.67;;;1.00;;
6135;SDS011;24008;42.664;23.372;2023-03-11T12:07:26;1.20;;;0.80;;
6135;SDS011;24008;42.664;23.372;2023-03-11T12:10:02;2.70;;;1.10;;
6135;SDS011;24008;42.664;23.372;2023-03-11T12:12:41;2.20;;;1.33;;
6135;SDS011;24008;42.664;23.372;2023-03-11T12:15:20;2.80;;;1.80;;
6135;SDS011;24008;42.664;23.372;2023-03-11T12:17:53;2.10;;;1.23;;
6135;SDS011;24008;42.664;23.372;2023-03-11T12:20:25;1.37;;;1.10;;
6135;SDS011;24008;42.664;23.372;2023-03-11T12:23:13;1.40;;;0.90;;
6135;SDS011;24008;42.664;23.372;2023-03-11T12:25:44;1.43;;;0.80;;
6135;SDS011;24008;42.664;23.372;2023-03-11T12:28:30;2.63;;;1.00;;
6135;SDS011;24008;42.664;23.372;2023-03-11T12:31:04;1.83;;;0.80;;
6135;SDS011;24008;42.664;23.372;2023-03-11T12:33:35;0.93;;;0.80;;
6135;SDS011;24008;42.664;23.372;2023-03-11T12:36:05;1.43;;;0.80;;
6135;SDS011;24008;42.664;23.372;2023-03-11T12:38:47;1.27;;;0.87;;
6135;SDS011;24008;42.664;23.372;2023-03-11T12:41:28;1.00;;;0.70;;
6135;SDS011;24008;42.664;23.372;2023-03-11T12:44:04;1.10;;;0.70;;
6135;SDS011;24008;42.664;23.372;2023-03-11T12:49:55;1.47;;;0.87;;
6135;SDS011;24008;42.664;23.372;2023-03-11T12:53:01;1.60;;;0.80;;
6135;SDS011;24008;42.664;23.372;2023-03-11T12:55:35;2.30;;;0.60;;
6135;SDS011;24008;42.664;23.372;2023-03-11T13:01:21;2.40;;;1.50;;
6135;SDS011;24008;42.664;23.372;2023-03-11T13:10:04;1.07;;;0.67;;
6135;SDS011;24008;42.664;23.372;2023-03-11T13:12:41;1.20;;;0.70;;
6135;SDS011;24008;42.664;23.372;2023-03-11T13:18:03;1.37;;;0.80;;
6135;SDS011;24008;42.664;23.372;2023-03-11T13:20:52;3.10;;;0.90;;
6135;SDS011;24008;42.664;23.372;2023-03-11T13:23:28;0.90;;;0.70;;
6135;SDS011;24008;42.664;23.372;2023-03-11T13:26:11;1.00;;;0.70;;
6135;SDS011;24008;42.664;23.372;2023-03-11T13:29:17;2.43;;;1.30;;
6135;SDS011;24008;42.664;23.372;2023-03-11T13:32:24;1.40;;;1.10;;
6135;SDS011;24008;42.664;23.372;2023-03-11T13:35:07;1.80;;;0.90;;
6135;SDS011;24008;42.664;23.372;2023-03-11T13:37:49;1.30;;;0.63;;
6135;SDS011;24008;42.664;23.372;2023-03-11T13:40:36;1.60;;;1.00;;
6135;SDS011;24008;42.664;23.372;2023-03-11T13:43:06;0.70;;;0.70;;
6135;SDS011;24008;42.664;23.372;2023-03-11T13:45:37;1.10;;;0.77;;
6135;SDS011;24008;42.664;23.372;2023-03-11T13:48:06;1.43;;;0.90;;
6135;SDS011;24008;42.664;23.372;2023-03-11T13:50:40;1.57;;;0.90;;
6135;SDS011;24008;42.664;23.372;2023-03-11T13:53:14;1.00;;;0.90;;
6135;SDS011;24008;42.664;23.372;2023-03-11T13:55:45;1.20;;;1.00;;
6135;SDS011;24008;42.664;23.372;2023-03-11T13:58:13;2.17;;;1.20;;
6135;SDS011;24008;42.664;23.372;2023-03-11T14:00:47;1.20;;;0.90;;
6135;SDS011;24008;42.664;23.372;2023-03-11T14:03:16;1.27;;;1.00;;
6135;SDS011;24008;42.664;23.372;2023-03-11T14:05:47;1.10;;;1.00;;
6135;SDS011;24008;42.664;23.372;2023-03-11T14:08:18;2.53;;;1.20;;
6135;SDS011;24008;42.664;23.372;2023-03-11T14:10:50;2.53;;;1.07;;
6135;SDS011;24008;42.664;23.372;2023-03-11T14:13:19;2.10;;;0.90;;
6135;SDS011;24008;42.664;23.372;2023-03-11T14:15:58;1.17;;;1.00;;
6135;SDS011;24008;42.664;23.372;2023-03-11T14:18:33;2.43;;;1.10;;
6135;SDS011;24008;42.664;23.372;2023-03-11T14:21:02;1.40;;;1.20;;
6135;SDS011;24008;42.664;23.372;2023-03-11T14:23:32;2.20;;;1.53;;
6135;SDS011;24008;42.664;23.372;2023-03-11T14:26:01;2.23;;;1.30;;
6135;SDS011;24008;42.664;23.372;2023-03-11T14:28:32;3.50;;;1.60;;
6135;SDS011;24008;42.664;23.372;2023-03-11T14:31:04;1.83;;;1.37;;
6135;SDS011;24008;42.664;23.372;2023-03-11T14:33:31;3.07;;;1.37;;
6135;SDS011;24008;42.664;23.372;2023-03-11T14:35:59;2.53;;;1.40;;
6135;SDS011;24008;42.664;23.372;2023-03-11T14:38:29;1.57;;;1.30;;
6135;SDS011;24008;42.664;23.372;2023-03-11T14:40:57;2.70;;;1.90;;
6135;SDS011;24008;42.664;23.372;2023-03-11T14:43:26;3.50;;;1.87;;
6135;SDS011;24008;42.664;23.372;2023-03-11T14:45:57;2.30;;;1.43;;
6135;SDS011;24008;42.664;23.372;2023-03-11T14:48:29;2.47;;;2.03;;
6135;SDS011;24008;42.664;23.372;2023-03-11T14:51:01;1.90;;;1.33;;
6135;SDS011;24008;42.664;23.372;2023-03-11T14:53:32;2.33;;;1.60;;
6135;SDS011;24008;42.664;23.372;2023-03-11T14:56:05;2.10;;;1.53;;
6135;SDS011;24008;42.664;23.372;2023-03-11T14:58:38;3.50;;;1.53;;
6135;SDS011;24008;42.664;23.372;2023-03-11T15:01:08;2.40;;;1.63;;
6135;SDS011;24008;42.664;23.372;2023-03-11T15:03:43;2.40;;;1.60;;
6135;SDS011;24008;42.664;23.372;2023-03-11T15:06:13;3.33;;;1.63;;
6135;SDS011;24008;42.664;23.372;2023-03-11T15:08:42;2.37;;;1.50;;
6135;SDS011;24008;42.664;23.372;2023-03-11T15:11:19;2.37;;;1.70;;
6135;SDS011;24008;42.664;23.372;2023-03-11T15:13:48;2.30;;;1.60;;
6135;SDS011;24008;42.664;23.372;2023-03-11T15:16:20;2.83;;;1.80;;
6135;SDS011;24008;42.664;23.372;2023-03-11T15:22:22;7.30;;;3.73;;
6135;SDS011;24008;42.664;23.372;2023-03-11T15:24:53;3.73;;;2.47;;
6135;SDS011;24008;42.664;23.372;2023-03-11T15:27:29;2.90;;;2.20;;